sensor_id;sensor_type;location;lat;lon;timestamp;P1;durP1;ratioP1;P2;durP2;ratioP2
60873;SDS011;46715;40.642;-7.920;2023-03-31T00:01:09;43.20;;;7.50;;
60873;SDS011;46715;40.642;-7.920;2023-03-31T00:03:10;30.73;;;8.20;;
60873;SDS011;46715;40.642;-7.920;2023-03-31T00:05:11;36.33;;;7.17;;
60873;SDS011;46715;40.642;-7.920;2023-03-31T00:07:17;36.90;;;6.72;;
60873;SDS011;46715;40.642;-7.920;2023-03-31T00:09:21;33.17;;;7.30;;
60873;SDS011;46715;40.642;-7.920;2023-03-31T00:11:22;35.73;;;8.43;;
60873;SDS011;46715;40.642;-7.920;2023-03-31T00:13:24;30.30;;;7.25;;
60873;SDS011;46715;40.642;-7.920;2023-03-31T00:15:25;27.47;;;5.93;;
60873;SDS011;46715;40.642;-7.920;2023-03-31T00:17:27;36.28;;;7.72;;
60873;SDS011;46715;40.642;-7.920;2023-03-31T00:19:32;32.72;;;7.95;;
60873;SDS011;46715;40.642;-7.920;2023-03-31T00:21:33;48.13;;;8.45;;
60873;SDS011;46715;40.642;-7.920;2023-03-31T00:23:36;28.90;;;6.38;;
60873;SDS011;46715;40.642;-7.920;2023-03-31T00:25:39;38.10;;;7.43;;
60873;SDS011;46715;40.642;-7.920;2023-03-31T00:27:44;37.25;;;6.68;;
60873;SDS011;46715;40.642;-7.920;2023-03-31T00:29:45;28.92;;;6.75;;
60873;SDS011;46715;40.642;-7.920;2023-03-31T00:31:46;26.38;;;6.18;;
60873;SDS011;46715;40.642;-7.920;2023-03-31T00:33:47;29.60;;;6.70;;
60873;SDS011;46715;40.642;-7.920;2023-03-31T00:37:52;27.52;;;7.05;;
60873;SDS011;46715;40.642;-7.920;2023-03-31T00:39:57;23.55;;;6.13;;
60873;SDS011;46715;40.642;-7.920;2023-03-31T00:41:58;22.48;;;6.03;;
60873;SDS011;46715;40.642;-7.920;2023-03-31T00:44:09;23.03;;;5.73;;
60873;SDS011;46715;40.642;-7.920;2023-03-31T00:46:29;22.73;;;5.03;;
60873;SDS011;46715;40.642;-7.920;2023-03-31T00:48:47;21.50;;;5.03;;
60873;SDS011;46715;40.642;-7.920;2023-03-31T00:50:53;21.55;;;4.97;;
60873;SDS011;46715;40.642;-7.920;2023-03-31T00:52:56;22.02;;;4.65;;
60873;SDS011;46715;40.642;-7.920;2023-03-31T00:55:07;13.05;;;3.80;;
60873;SDS011;46715;40.642;-7.920;2023-03-31T00:57:11;11.32;;;3.63;;
60873;SDS011;46715;40.642;-7.920;2023-03-31T00:59:15;15.95;;;3.78;;
60873;SDS011;46715;40.642;-7.920;2023-03-31T01:01:17;14.27;;;3.40;;
60873;SDS011;46715;40.642;-7.920;2023-03-31T01:03:23;10.15;;;2.90;;
60873;SDS011;46715;40.642;-7.920;2023-03-31T01:05:26;10.32;;;3.20;;
60873;SDS011;46715;40.642;-7.920;2023-03-31T01:07:35;10.85;;;2.35;;
60873;SDS011;46715;40.642;-7.920;2023-03-31T01:09:43;8.55;;;2.20;;
60873;SDS011;46715;40.642;-7.920;2023-03-31T01:11:48;3.67;;;2.05;;
60873;SDS011;46715;40.642;-7.920;2023-03-31T01:13:50;4.78;;;1.92;;
60873;SDS011;46715;40.642;-7.920;2023-03-31T01:15:55;5.78;;;1.92;;
60873;SDS011;46715;40.642;-7.920;2023-03-31T01:17:56;5.20;;;2.00;;
60873;SDS011;46715;40.642;-7.920;2023-03-31T01:27:25;28.05;;;2.85;;
60873;SDS011;46715;40.642;-7.920;2023-03-31T01:29:54;12.95;;;2.13;;
60873;SDS011;46715;40.642;-7.920;2023-03-31T01:43:46;10.88;;;1.85;;
60873;SDS011;46715;40.642;-7.920;2023-03-31T01:46:00;21.10;;;2.92;;
60873;SDS011;46715;40.642;-7.920;2023-03-31T01:48:06;32.72;;;3.20;;
60873;SDS011;46715;40.642;-7.920;2023-03-31T01:55:46;77.15;;;6.72;;
60873;SDS011;46715;40.642;-7.920;2023-03-31T01:58:04;113.43;;;8.93;;
60873;SDS011;46715;40.642;-7.920;2023-03-31T02:00:11;75.50;;;6.18;;
60873;SDS011;46715;40.642;-7.920;2023-03-31T02:02:16;110.40;;;8.80;;
60873;SDS011;46715;40.642;-7.920;2023-03-31T02:04:28;74.40;;;5.63;;
60873;SDS011;46715;40.642;-7.920;2023-03-31T02:06:34;23.17;;;3.20;;
60873;SDS011;46715;40.642;-7.920;2023-03-31T02:08:40;15.50;;;2.50;;
60873;SDS011;46715;40.642;-7.920;2023-03-31T02:10:44;31.77;;;3.28;;
60873;SDS011;46715;40.642;-7.920;2023-03-31T02:12:47;23.35;;;2.65;;
60873;SDS011;46715;40.642;-7.920;2023-03-31T02:14:51;10.88;;;2.05;;
60873;SDS011;46715;40.642;-7.920;2023-03-31T02:16:56;3.92;;;1.63;;
60873;SDS011;46715;40.642;-7.920;2023-03-31T02:19:02;5.32;;;1.70;;
60873;SDS011;46715;40.642;-7.920;2023-03-31T02:21:05;3.75;;;1.35;;
60873;SDS011;46715;40.642;-7.920;2023-03-31T02:23:09;2.10;;;1.10;;
60873;SDS011;46715;40.642;-7.920;2023-03-31T02:25:14;3.25;;;1.30;;
60873;SDS011;46715;40.642;-7.920;2023-03-31T02:27:19;4.10;;;1.10;;
60873;SDS011;46715;40.642;-7.920;2023-03-31T02:29:25;3.47;;;0.90;;
60873;SDS011;46715;40.642;-7.920;2023-03-31T02:31:43;2.08;;;1.10;;
60873;SDS011;46715;40.642;-7.920;2023-03-31T02:33:48;2.83;;;1.13;;
60873;SDS011;46715;40.642;-7.920;2023-03-31T02:35:49;2.22;;;0.90;;
60873;SDS011;46715;40.642;-7.920;2023-03-31T02:37:52;1.00;;;0.77;;
60873;SDS011;46715;40.642;-7.920;2023-03-31T02:39:53;2.47;;;0.83;;
60873;SDS011;46715;40.642;-7.920;2023-03-31T02:41:58;1.23;;;0.77;;
60873;SDS011;46715;40.642;-7.920;2023-03-31T02:44:01;5.05;;;1.27;;
60873;SDS011;46715;40.642;-7.920;2023-03-31T02:46:02;2.42;;;1.13;;
60873;SDS011;46715;40.642;-7.920;2023-03-31T02:52:56;6.65;;;2.22;;
60873;SDS011;46715;40.642;-7.920;2023-03-31T03:09:22;1.50;;;0.90;;
60873;SDS011;46715;40.642;-7.920;2023-03-31T03:11:35;1.67;;;0.95;;
60873;SDS011;46715;40.642;-7.920;2023-03-31T03:13:49;1.92;;;0.85;;
60873;SDS011;46715;40.642;-7.920;2023-03-31T03:16:02;3.55;;;1.52;;
60873;SDS011;46715;40.642;-7.920;2023-03-31T03:18:13;2.17;;;1.08;;
60873;SDS011;46715;40.642;-7.920;2023-03-31T03:20:14;2.65;;;1.10;;
60873;SDS011;46715;40.642;-7.920;2023-03-31T03:22:18;3.58;;;1.27;;
60873;SDS011;46715;40.642;-7.920;2023-03-31T03:24:19;3.63;;;1.20;;
60873;SDS011;46715;40.642;-7.920;2023-03-31T03:26:22;1.42;;;0.82;;
60873;SDS011;46715;40.642;-7.920;2023-03-31T03:28:23;3.13;;;0.82;;
60873;SDS011;46715;40.642;-7.920;2023-03-31T03:30:24;3.53;;;0.90;;
60873;SDS011;46715;40.642;-7.920;2023-03-31T03:32:25;2.47;;;1.03;;
60873;SDS011;46715;40.642;-7.920;2023-03-31T03:34:26;6.27;;;1.10;;
60873;SDS011;46715;40.642;-7.920;2023-03-31T03:36:26;3.80;;;1.20;;
60873;SDS011;46715;40.642;-7.920;2023-03-31T03:38:27;4.17;;;1.13;;
60873;SDS011;46715;40.642;-7.920;2023-03-31T03:40:28;4.33;;;1.00;;
60873;SDS011;46715;40.642;-7.920;2023-03-31T03:42:30;3.97;;;1.25;;
60873;SDS011;46715;40.642;-7.920;2023-03-31T03:44:31;3.92;;;1.23;;
60873;SDS011;46715;40.642;-7.920;2023-03-31T03:46:32;1.63;;;0.97;;
60873;SDS011;46715;40.642;-7.920;2023-03-31T03:48:34;3.40;;;1.40;;
60873;SDS011;46715;40.642;-7.920;2023-03-31T03:50:35;6.15;;;1.58;;
60873;SDS011;46715;40.642;-7.920;2023-03-31T03:52:36;6.25;;;1.67;;
60873;SDS011;46715;40.642;-7.920;2023-03-31T03:56:39;5.82;;;2.00;;
60873;SDS011;46715;40.642;-7.920;2023-03-31T03:58:40;6.57;;;2.30;;
60873;SDS011;46715;40.642;-7.920;2023-03-31T04:00:41;6.97;;;2.13;;
60873;SDS011;46715;40.642;-7.920;2023-03-31T04:02:42;8.18;;;2.38;;
60873;SDS011;46715;40.642;-7.920;2023-03-31T04:04:43;13.17;;;2.03;;
60873;SDS011;46715;40.642;-7.920;2023-03-31T04:06:43;10.87;;;2.27;;
60873;SDS011;46715;40.642;-7.920;2023-03-31T04:08:44;9.23;;;2.20;;
60873;SDS011;46715;40.642;-7.920;2023-03-31T04:10:45;6.27;;;1.90;;
60873;SDS011;46715;40.642;-7.920;2023-03-31T04:12:48;8.15;;;2.20;;
60873;SDS011;46715;40.642;-7.920;2023-03-31T04:14:49;6.22;;;2.50;;
60873;SDS011;46715;40.642;-7.920;2023-03-31T04:16:50;13.33;;;3.23;;
60873;SDS011;46715;40.642;-7.920;2023-03-31T04:18:51;10.40;;;2.53;;
60873;SDS011;46715;40.642;-7.920;2023-03-31T04:20:55;10.52;;;2.42;;
60873;SDS011;46715;40.642;-7.920;2023-03-31T04:23:06;13.77;;;2.70;;
60873;SDS011;46715;40.642;-7.920;2023-03-31T04:25:09;10.15;;;2.63;;
60873;SDS011;46715;40.642;-7.920;2023-03-31T04:27:19;10.48;;;2.90;;
60873;SDS011;46715;40.642;-7.920;2023-03-31T04:29:20;9.20;;;2.33;;
60873;SDS011;46715;40.642;-7.920;2023-03-31T04:31:21;13.95;;;3.35;;
60873;SDS011;46715;40.642;-7.920;2023-03-31T04:33:24;14.50;;;3.10;;
60873;SDS011;46715;40.642;-7.920;2023-03-31T04:35:26;10.63;;;2.57;;
60873;SDS011;46715;40.642;-7.920;2023-03-31T04:37:49;15.25;;;2.80;;
60873;SDS011;46715;40.642;-7.920;2023-03-31T04:39:51;12.15;;;2.92;;
60873;SDS011;46715;40.642;-7.920;2023-03-31T04:41:53;12.57;;;2.75;;
60873;SDS011;46715;40.642;-7.920;2023-03-31T04:43:55;12.18;;;3.33;;
60873;SDS011;46715;40.642;-7.920;2023-03-31T04:45:56;15.93;;;3.63;;
60873;SDS011;46715;40.642;-7.920;2023-03-31T04:47:57;8.73;;;2.75;;
60873;SDS011;46715;40.642;-7.920;2023-03-31T04:49:57;14.27;;;3.20;;
60873;SDS011;46715;40.642;-7.920;2023-03-31T04:51:58;11.03;;;3.13;;
60873;SDS011;46715;40.642;-7.920;2023-03-31T04:53:59;15.87;;;3.17;;
60873;SDS011;46715;40.642;-7.920;2023-03-31T04:56:00;12.23;;;3.07;;
60873;SDS011;46715;40.642;-7.920;2023-03-31T04:58:01;11.88;;;3.15;;
60873;SDS011;46715;40.642;-7.920;2023-03-31T05:00:03;14.80;;;3.35;;
60873;SDS011;46715;40.642;-7.920;2023-03-31T05:02:07;13.82;;;3.50;;
60873;SDS011;46715;40.642;-7.920;2023-03-31T05:04:07;13.90;;;3.83;;
60873;SDS011;46715;40.642;-7.920;2023-03-31T05:06:08;14.57;;;3.23;;
60873;SDS011;46715;40.642;-7.920;2023-03-31T05:08:09;16.13;;;4.45;;
60873;SDS011;46715;40.642;-7.920;2023-03-31T05:10:10;16.23;;;3.80;;
60873;SDS011;46715;40.642;-7.920;2023-03-31T05:12:12;13.52;;;2.92;;
60873;SDS011;46715;40.642;-7.920;2023-03-31T05:14:13;16.27;;;3.30;;
60873;SDS011;46715;40.642;-7.920;2023-03-31T05:16:13;11.97;;;3.30;;
60873;SDS011;46715;40.642;-7.920;2023-03-31T05:18:15;22.10;;;3.70;;
60873;SDS011;46715;40.642;-7.920;2023-03-31T05:20:17;18.67;;;4.00;;
60873;SDS011;46715;40.642;-7.920;2023-03-31T05:24:20;17.80;;;4.65;;
60873;SDS011;46715;40.642;-7.920;2023-03-31T05:26:21;18.38;;;3.75;;
60873;SDS011;46715;40.642;-7.920;2023-03-31T05:28:24;11.20;;;3.35;;
60873;SDS011;46715;40.642;-7.920;2023-03-31T05:30:25;17.53;;;3.83;;
60873;SDS011;46715;40.642;-7.920;2023-03-31T05:32:27;16.17;;;4.18;;
60873;SDS011;46715;40.642;-7.920;2023-03-31T05:34:28;11.40;;;3.33;;
60873;SDS011;46715;40.642;-7.920;2023-03-31T05:36:30;15.07;;;3.72;;
60873;SDS011;46715;40.642;-7.920;2023-03-31T05:38:31;15.05;;;3.53;;
60873;SDS011;46715;40.642;-7.920;2023-03-31T05:40:33;18.23;;;4.05;;
60873;SDS011;46715;40.642;-7.920;2023-03-31T05:42:34;12.57;;;3.47;;
60873;SDS011;46715;40.642;-7.920;2023-03-31T05:44:35;14.13;;;3.47;;
60873;SDS011;46715;40.642;-7.920;2023-03-31T05:46:36;10.10;;;3.37;;
60873;SDS011;46715;40.642;-7.920;2023-03-31T05:48:37;11.27;;;2.97;;
60873;SDS011;46715;40.642;-7.920;2023-03-31T05:50:38;12.27;;;3.53;;
60873;SDS011;46715;40.642;-7.920;2023-03-31T05:52:39;14.37;;;3.40;;
60873;SDS011;46715;40.642;-7.920;2023-03-31T05:54:39;12.83;;;3.50;;
60873;SDS011;46715;40.642;-7.920;2023-03-31T05:56:42;18.40;;;3.38;;
60873;SDS011;46715;40.642;-7.920;2023-03-31T05:58:44;13.98;;;3.28;;
60873;SDS011;46715;40.642;-7.920;2023-03-31T06:00:49;14.20;;;3.40;;
60873;SDS011;46715;40.642;-7.920;2023-03-31T06:02:53;16.80;;;3.80;;
60873;SDS011;46715;40.642;-7.920;2023-03-31T06:04:54;11.85;;;3.17;;
60873;SDS011;46715;40.642;-7.920;2023-03-31T06:06:55;11.40;;;3.50;;
60873;SDS011;46715;40.642;-7.920;2023-03-31T06:08:57;14.68;;;4.43;;
60873;SDS011;46715;40.642;-7.920;2023-03-31T06:10:58;14.80;;;3.77;;
60873;SDS011;46715;40.642;-7.920;2023-03-31T06:13:00;10.27;;;3.40;;
60873;SDS011;46715;40.642;-7.920;2023-03-31T06:15:02;16.38;;;4.07;;
60873;SDS011;46715;40.642;-7.920;2023-03-31T06:17:03;20.17;;;4.18;;
60873;SDS011;46715;40.642;-7.920;2023-03-31T06:19:04;16.57;;;3.63;;
60873;SDS011;46715;40.642;-7.920;2023-03-31T06:21:05;16.97;;;3.73;;
60873;SDS011;46715;40.642;-7.920;2023-03-31T06:23:06;22.60;;;4.95;;
60873;SDS011;46715;40.642;-7.920;2023-03-31T06:25:07;17.27;;;4.13;;
60873;SDS011;46715;40.642;-7.920;2023-03-31T06:27:08;24.00;;;4.50;;
60873;SDS011;46715;40.642;-7.920;2023-03-31T06:29:09;19.67;;;4.43;;
60873;SDS011;46715;40.642;-7.920;2023-03-31T06:31:11;24.67;;;4.50;;
60873;SDS011;46715;40.642;-7.920;2023-03-31T06:33:14;19.83;;;4.47;;
60873;SDS011;46715;40.642;-7.920;2023-03-31T06:35:15;12.88;;;4.30;;
60873;SDS011;46715;40.642;-7.920;2023-03-31T06:37:16;18.53;;;4.57;;
60873;SDS011;46715;40.642;-7.920;2023-03-31T06:39:17;16.07;;;4.53;;
60873;SDS011;46715;40.642;-7.920;2023-03-31T06:41:18;13.40;;;3.58;;
60873;SDS011;46715;40.642;-7.920;2023-03-31T06:43:21;18.88;;;4.43;;
60873;SDS011;46715;40.642;-7.920;2023-03-31T06:45:23;12.15;;;3.67;;
60873;SDS011;46715;40.642;-7.920;2023-03-31T06:47:23;15.80;;;4.80;;
60873;SDS011;46715;40.642;-7.920;2023-03-31T06:49:24;17.52;;;4.45;;
60873;SDS011;46715;40.642;-7.920;2023-03-31T06:51:25;13.80;;;4.20;;
60873;SDS011;46715;40.642;-7.920;2023-03-31T06:53:27;23.35;;;4.57;;
60873;SDS011;46715;40.642;-7.920;2023-03-31T06:55:28;18.33;;;4.03;;
60873;SDS011;46715;40.642;-7.920;2023-03-31T06:57:30;17.88;;;4.28;;
60873;SDS011;46715;40.642;-7.920;2023-03-31T06:59:33;17.25;;;4.22;;
60873;SDS011;46715;40.642;-7.920;2023-03-31T07:01:34;17.08;;;4.47;;
60873;SDS011;46715;40.642;-7.920;2023-03-31T07:03:36;15.30;;;4.22;;
60873;SDS011;46715;40.642;-7.920;2023-03-31T07:05:37;16.80;;;3.88;;
60873;SDS011;46715;40.642;-7.920;2023-03-31T07:07:38;16.92;;;4.10;;
60873;SDS011;46715;40.642;-7.920;2023-03-31T07:09:40;20.85;;;4.60;;
60873;SDS011;46715;40.642;-7.920;2023-03-31T07:11:44;22.02;;;4.20;;
60873;SDS011;46715;40.642;-7.920;2023-03-31T07:13:45;20.23;;;4.17;;
60873;SDS011;46715;40.642;-7.920;2023-03-31T07:15:46;24.93;;;4.93;;
60873;SDS011;46715;40.642;-7.920;2023-03-31T07:17:50;18.27;;;3.80;;
60873;SDS011;46715;40.642;-7.920;2023-03-31T07:19:53;18.92;;;4.55;;
60873;SDS011;46715;40.642;-7.920;2023-03-31T07:21:54;19.70;;;4.60;;
60873;SDS011;46715;40.642;-7.920;2023-03-31T07:23:55;14.38;;;3.65;;
60873;SDS011;46715;40.642;-7.920;2023-03-31T07:25:57;21.23;;;4.82;;
60873;SDS011;46715;40.642;-7.920;2023-03-31T07:28:02;17.50;;;4.63;;
60873;SDS011;46715;40.642;-7.920;2023-03-31T07:30:08;16.00;;;3.80;;
60873;SDS011;46715;40.642;-7.920;2023-03-31T07:32:12;17.10;;;4.70;;
60873;SDS011;46715;40.642;-7.920;2023-03-31T07:34:16;15.87;;;4.17;;
60873;SDS011;46715;40.642;-7.920;2023-03-31T07:36:16;15.00;;;4.93;;
60873;SDS011;46715;40.642;-7.920;2023-03-31T07:38:17;22.30;;;4.50;;
60873;SDS011;46715;40.642;-7.920;2023-03-31T07:40:20;18.40;;;4.20;;
60873;SDS011;46715;40.642;-7.920;2023-03-31T07:42:22;26.20;;;5.55;;
60873;SDS011;46715;40.642;-7.920;2023-03-31T07:44:23;19.13;;;5.03;;
60873;SDS011;46715;40.642;-7.920;2023-03-31T07:46:26;32.55;;;5.30;;
60873;SDS011;46715;40.642;-7.920;2023-03-31T07:48:27;17.63;;;4.10;;
60873;SDS011;46715;40.642;-7.920;2023-03-31T07:50:29;18.77;;;4.53;;
60873;SDS011;46715;40.642;-7.920;2023-03-31T07:52:33;19.75;;;4.38;;
60873;SDS011;46715;40.642;-7.920;2023-03-31T07:54:34;19.95;;;4.50;;
60873;SDS011;46715;40.642;-7.920;2023-03-31T07:56:35;19.73;;;4.65;;
60873;SDS011;46715;40.642;-7.920;2023-03-31T07:58:36;20.42;;;4.68;;
60873;SDS011;46715;40.642;-7.920;2023-03-31T08:00:37;18.38;;;3.75;;
60873;SDS011;46715;40.642;-7.920;2023-03-31T08:02:42;27.95;;;4.85;;
60873;SDS011;46715;40.642;-7.920;2023-03-31T08:04:43;21.30;;;4.50;;
60873;SDS011;46715;40.642;-7.920;2023-03-31T08:06:46;10.65;;;3.35;;
60873;SDS011;46715;40.642;-7.920;2023-03-31T08:08:47;21.63;;;3.67;;
60873;SDS011;46715;40.642;-7.920;2023-03-31T08:10:57;19.88;;;3.75;;
60873;SDS011;46715;40.642;-7.920;2023-03-31T08:12:58;14.45;;;3.78;;
60873;SDS011;46715;40.642;-7.920;2023-03-31T08:15:02;19.60;;;3.88;;
60873;SDS011;46715;40.642;-7.920;2023-03-31T08:17:03;18.23;;;3.55;;
60873;SDS011;46715;40.642;-7.920;2023-03-31T08:19:05;19.00;;;5.78;;
60873;SDS011;46715;40.642;-7.920;2023-03-31T08:21:06;14.18;;;3.60;;
60873;SDS011;46715;40.642;-7.920;2023-03-31T08:23:09;12.18;;;3.20;;
60873;SDS011;46715;40.642;-7.920;2023-03-31T08:25:11;18.58;;;3.45;;
60873;SDS011;46715;40.642;-7.920;2023-03-31T08:27:25;16.17;;;4.00;;
60873;SDS011;46715;40.642;-7.920;2023-03-31T08:29:26;8.77;;;2.97;;
60873;SDS011;46715;40.642;-7.920;2023-03-31T08:31:27;15.05;;;4.20;;
60873;SDS011;46715;40.642;-7.920;2023-03-31T08:33:29;14.40;;;3.75;;
60873;SDS011;46715;40.642;-7.920;2023-03-31T08:35:36;12.88;;;3.85;;
60873;SDS011;46715;40.642;-7.920;2023-03-31T08:37:37;20.30;;;3.80;;
60873;SDS011;46715;40.642;-7.920;2023-03-31T08:39:39;19.80;;;4.88;;
60873;SDS011;46715;40.642;-7.920;2023-03-31T08:43:56;17.60;;;4.45;;
60873;SDS011;46715;40.642;-7.920;2023-03-31T08:45:59;15.32;;;3.83;;
60873;SDS011;46715;40.642;-7.920;2023-03-31T08:50:26;16.55;;;3.17;;
60873;SDS011;46715;40.642;-7.920;2023-03-31T08:52:32;14.15;;;3.17;;
60873;SDS011;46715;40.642;-7.920;2023-03-31T08:54:40;11.88;;;3.17;;
60873;SDS011;46715;40.642;-7.920;2023-03-31T08:56:49;11.18;;;2.70;;
60873;SDS011;46715;40.642;-7.920;2023-03-31T08:58:51;16.05;;;3.15;;
60873;SDS011;46715;40.642;-7.920;2023-03-31T09:03:17;11.60;;;3.08;;
60873;SDS011;46715;40.642;-7.920;2023-03-31T09:06:08;15.55;;;2.75;;
60873;SDS011;46715;40.642;-7.920;2023-03-31T09:08:30;12.85;;;2.92;;
60873;SDS011;46715;40.642;-7.920;2023-03-31T09:10:41;17.10;;;2.85;;
60873;SDS011;46715;40.642;-7.920;2023-03-31T09:12:46;12.88;;;2.90;;
60873;SDS011;46715;40.642;-7.920;2023-03-31T09:14:58;11.82;;;3.63;;
60873;SDS011;46715;40.642;-7.920;2023-03-31T09:19:18;14.25;;;3.38;;
60873;SDS011;46715;40.642;-7.920;2023-03-31T09:21:31;13.80;;;3.60;;
60873;SDS011;46715;40.642;-7.920;2023-03-31T09:25:58;13.95;;;3.03;;
60873;SDS011;46715;40.642;-7.920;2023-03-31T09:30:34;16.02;;;2.90;;
60873;SDS011;46715;40.642;-7.920;2023-03-31T09:32:39;13.43;;;3.42;;
60873;SDS011;46715;40.642;-7.920;2023-03-31T09:39:28;15.35;;;3.65;;
60873;SDS011;46715;40.642;-7.920;2023-03-31T09:41:30;17.15;;;3.33;;
60873;SDS011;46715;40.642;-7.920;2023-03-31T09:43:31;14.73;;;3.47;;
60873;SDS011;46715;40.642;-7.920;2023-03-31T09:45:36;18.65;;;3.17;;
60873;SDS011;46715;40.642;-7.920;2023-03-31T09:47:38;20.10;;;4.10;;
60873;SDS011;46715;40.642;-7.920;2023-03-31T09:49:44;15.35;;;3.28;;
60873;SDS011;46715;40.642;-7.920;2023-03-31T09:51:47;17.70;;;3.72;;
60873;SDS011;46715;40.642;-7.920;2023-03-31T09:54:02;15.55;;;3.97;;
60873;SDS011;46715;40.642;-7.920;2023-03-31T09:56:11;21.67;;;3.83;;
60873;SDS011;46715;40.642;-7.920;2023-03-31T09:58:16;14.80;;;4.20;;
60873;SDS011;46715;40.642;-7.920;2023-03-31T10:00:18;18.80;;;3.58;;
60873;SDS011;46715;40.642;-7.920;2023-03-31T10:02:36;17.92;;;3.33;;
60873;SDS011;46715;40.642;-7.920;2023-03-31T10:07:03;13.07;;;3.28;;
60873;SDS011;46715;40.642;-7.920;2023-03-31T10:09:04;16.50;;;3.00;;
60873;SDS011;46715;40.642;-7.920;2023-03-31T10:11:09;14.00;;;3.63;;
60873;SDS011;46715;40.642;-7.920;2023-03-31T10:15:26;13.43;;;3.70;;
60873;SDS011;46715;40.642;-7.920;2023-03-31T10:17:33;12.02;;;3.00;;
60873;SDS011;46715;40.642;-7.920;2023-03-31T10:19:59;14.07;;;2.97;;
60873;SDS011;46715;40.642;-7.920;2023-03-31T10:22:15;11.23;;;2.97;;
60873;SDS011;46715;40.642;-7.920;2023-03-31T10:24:39;11.95;;;3.08;;
60873;SDS011;46715;40.642;-7.920;2023-03-31T10:26:42;14.05;;;3.17;;
60873;SDS011;46715;40.642;-7.920;2023-03-31T10:28:43;15.00;;;3.47;;
60873;SDS011;46715;40.642;-7.920;2023-03-31T10:33:06;12.68;;;2.80;;
60873;SDS011;46715;40.642;-7.920;2023-03-31T10:35:31;15.23;;;3.80;;
60873;SDS011;46715;40.642;-7.920;2023-03-31T10:37:34;16.58;;;4.00;;
60873;SDS011;46715;40.642;-7.920;2023-03-31T10:39:35;15.75;;;3.67;;
60873;SDS011;46715;40.642;-7.920;2023-03-31T10:41:38;17.63;;;4.85;;
60873;SDS011;46715;40.642;-7.920;2023-03-31T10:43:41;18.92;;;4.60;;
60873;SDS011;46715;40.642;-7.920;2023-03-31T10:45:50;16.75;;;4.78;;
60873;SDS011;46715;40.642;-7.920;2023-03-31T10:47:54;26.35;;;6.40;;
60873;SDS011;46715;40.642;-7.920;2023-03-31T10:49:58;18.73;;;5.18;;
60873;SDS011;46715;40.642;-7.920;2023-03-31T10:52:10;20.30;;;5.32;;
60873;SDS011;46715;40.642;-7.920;2023-03-31T10:54:17;24.50;;;5.35;;
60873;SDS011;46715;40.642;-7.920;2023-03-31T11:00:45;21.88;;;6.25;;
60873;SDS011;46715;40.642;-7.920;2023-03-31T11:13:47;18.30;;;5.85;;
60873;SDS011;46715;40.642;-7.920;2023-03-31T11:18:54;21.00;;;5.30;;
60873;SDS011;46715;40.642;-7.920;2023-03-31T11:21:22;16.45;;;5.18;;
60873;SDS011;46715;40.642;-7.920;2023-03-31T11:32:57;31.10;;;6.10;;
60873;SDS011;46715;40.642;-7.920;2023-03-31T11:35:22;18.08;;;4.85;;
60873;SDS011;46715;40.642;-7.920;2023-03-31T11:45:16;21.35;;;4.90;;
60873;SDS011;46715;40.642;-7.920;2023-03-31T11:47:21;25.70;;;6.18;;
60873;SDS011;46715;40.642;-7.920;2023-03-31T11:49:31;16.30;;;4.32;;
60873;SDS011;46715;40.642;-7.920;2023-03-31T11:54:05;18.83;;;5.03;;
60873;SDS011;46715;40.642;-7.920;2023-03-31T11:56:13;18.15;;;4.47;;
60873;SDS011;46715;40.642;-7.920;2023-03-31T11:58:17;14.02;;;4.00;;
60873;SDS011;46715;40.642;-7.920;2023-03-31T12:05:23;21.27;;;5.32;;
60873;SDS011;46715;40.642;-7.920;2023-03-31T12:07:33;24.58;;;5.20;;
60873;SDS011;46715;40.642;-7.920;2023-03-31T12:10:14;17.60;;;4.63;;
60873;SDS011;46715;40.642;-7.920;2023-03-31T12:12:27;29.35;;;5.22;;
60873;SDS011;46715;40.642;-7.920;2023-03-31T12:17:14;21.48;;;4.68;;
60873;SDS011;46715;40.642;-7.920;2023-03-31T12:21:28;14.20;;;3.97;;
60873;SDS011;46715;40.642;-7.920;2023-03-31T12:23:37;19.42;;;4.25;;
60873;SDS011;46715;40.642;-7.920;2023-03-31T12:26:11;20.08;;;4.50;;
60873;SDS011;46715;40.642;-7.920;2023-03-31T12:28:25;20.33;;;4.65;;
60873;SDS011;46715;40.642;-7.920;2023-03-31T12:30:31;20.08;;;5.25;;
60873;SDS011;46715;40.642;-7.920;2023-03-31T12:32:37;21.50;;;5.93;;
60873;SDS011;46715;40.642;-7.920;2023-03-31T12:34:47;12.90;;;4.60;;
60873;SDS011;46715;40.642;-7.920;2023-03-31T12:47:21;22.27;;;4.88;;
60873;SDS011;46715;40.642;-7.920;2023-03-31T12:52:17;19.48;;;4.45;;
60873;SDS011;46715;40.642;-7.920;2023-03-31T12:54:31;23.25;;;4.78;;
60873;SDS011;46715;40.642;-7.920;2023-03-31T12:59:16;27.77;;;5.03;;
60873;SDS011;46715;40.642;-7.920;2023-03-31T13:01:21;17.58;;;5.32;;
60873;SDS011;46715;40.642;-7.920;2023-03-31T13:07:36;21.67;;;5.75;;
60873;SDS011;46715;40.642;-7.920;2023-03-31T13:09:41;24.10;;;5.22;;
60873;SDS011;46715;40.642;-7.920;2023-03-31T13:11:47;20.83;;;5.13;;
60873;SDS011;46715;40.642;-7.920;2023-03-31T13:13:56;23.67;;;6.00;;
60873;SDS011;46715;40.642;-7.920;2023-03-31T13:16:01;18.00;;;5.15;;
60873;SDS011;46715;40.642;-7.920;2023-03-31T13:18:03;25.00;;;5.88;;
60873;SDS011;46715;40.642;-7.920;2023-03-31T13:20:16;27.88;;;4.45;;
60873;SDS011;46715;40.642;-7.920;2023-03-31T13:24:31;23.30;;;5.28;;
60873;SDS011;46715;40.642;-7.920;2023-03-31T13:28:40;26.50;;;5.65;;
60873;SDS011;46715;40.642;-7.920;2023-03-31T13:30:45;25.30;;;5.50;;
60873;SDS011;46715;40.642;-7.920;2023-03-31T13:33:06;25.90;;;5.80;;
60873;SDS011;46715;40.642;-7.920;2023-03-31T13:35:26;31.70;;;6.97;;
60873;SDS011;46715;40.642;-7.920;2023-03-31T13:39:57;26.65;;;6.07;;
60873;SDS011;46715;40.642;-7.920;2023-03-31T13:56:26;23.88;;;5.53;;
60873;SDS011;46715;40.642;-7.920;2023-03-31T14:06:31;21.90;;;5.03;;
60873;SDS011;46715;40.642;-7.920;2023-03-31T14:10:39;29.08;;;6.10;;
60873;SDS011;46715;40.642;-7.920;2023-03-31T14:12:41;24.45;;;5.15;;
60873;SDS011;46715;40.642;-7.920;2023-03-31T14:14:43;21.17;;;4.50;;
60873;SDS011;46715;40.642;-7.920;2023-03-31T14:16:51;23.25;;;5.10;;
60873;SDS011;46715;40.642;-7.920;2023-03-31T14:19:00;22.33;;;4.72;;
60873;SDS011;46715;40.642;-7.920;2023-03-31T14:21:16;18.10;;;3.88;;
60873;SDS011;46715;40.642;-7.920;2023-03-31T14:23:38;18.92;;;4.47;;
60873;SDS011;46715;40.642;-7.920;2023-03-31T14:30:36;23.17;;;4.60;;
60873;SDS011;46715;40.642;-7.920;2023-03-31T14:35:10;22.08;;;4.95;;
60873;SDS011;46715;40.642;-7.920;2023-03-31T14:37:23;14.90;;;4.78;;
60873;SDS011;46715;40.642;-7.920;2023-03-31T14:39:36;15.18;;;4.35;;
60873;SDS011;46715;40.642;-7.920;2023-03-31T14:41:41;13.40;;;3.83;;
60873;SDS011;46715;40.642;-7.920;2023-03-31T14:43:45;14.48;;;3.60;;
60873;SDS011;46715;40.642;-7.920;2023-03-31T14:46:08;14.70;;;3.20;;
60873;SDS011;46715;40.642;-7.920;2023-03-31T14:48:11;12.02;;;3.60;;
60873;SDS011;46715;40.642;-7.920;2023-03-31T14:50:14;15.55;;;3.53;;
60873;SDS011;46715;40.642;-7.920;2023-03-31T14:52:20;11.95;;;3.17;;
60873;SDS011;46715;40.642;-7.920;2023-03-31T14:54:24;15.68;;;3.67;;
60873;SDS011;46715;40.642;-7.920;2023-03-31T14:56:32;16.05;;;3.50;;
60873;SDS011;46715;40.642;-7.920;2023-03-31T14:58:39;13.07;;;3.30;;
60873;SDS011;46715;40.642;-7.920;2023-03-31T15:00:46;16.35;;;3.40;;
60873;SDS011;46715;40.642;-7.920;2023-03-31T15:02:47;15.73;;;3.47;;
60873;SDS011;46715;40.642;-7.920;2023-03-31T15:04:48;11.55;;;3.72;;
60873;SDS011;46715;40.642;-7.920;2023-03-31T15:06:50;18.75;;;3.83;;
60873;SDS011;46715;40.642;-7.920;2023-03-31T15:08:54;13.45;;;3.80;;
60873;SDS011;46715;40.642;-7.920;2023-03-31T15:10:58;20.58;;;4.13;;
60873;SDS011;46715;40.642;-7.920;2023-03-31T15:13:08;14.77;;;3.78;;
60873;SDS011;46715;40.642;-7.920;2023-03-31T15:15:11;19.52;;;3.60;;